Flight Track Log - Related Links

Times and Time Zones

All times are in EDT time to prevent confusion due to time zone crossing. See the LYM134 flight status page for this flight to view local times or setup timezone preferences in your user account.

Time Position Orientation Groundspeed Altitude Reporting Facility
EDT Latitude Longitude Course Direction KTS MPH feet Rate Location/Type
Sat 09:03:36 AM 39.8667 -104.5833 113° Southeast 162 186 7,400  Level Denver TRACON
Sat 09:04:36 AM 39.8500 -104.5333 113° Southeast 181 208 9,000 1,109 Climbing Denver TRACON
Sat 09:05:08 AM 39.8258 -104.4919 127° Southeast 206 237 9,100 710 Climbing Denver Center
Sat 09:06:09 AM 39.7931 -104.4133 118° Southeast 244 281 10,100 992 Climbing Denver Center
Sat 09:07:09 AM 39.7642 -104.3378 116° Southeast 237 273 11,100 1,041 Climbing Denver Center
Sat 09:08:10 AM 39.7386 -104.2603 113° Southeast 235 270 12,200 934 Climbing Denver Center
Sat 09:09:11 AM 39.7181 -104.1783 108° East 240 276 13,000 446 Climbing Denver Center
Sat 09:10:11 AM 39.6942 -104.0919 110° East 254 292 13,100 50 Climbing Denver Center
Sat 09:11:12 AM 39.6647 -104.0017 113° Southeast 270 311 13,100 246 Level Denver Center
Sat 09:12:13 AM 39.6314 -103.9036 114° Southeast 275 316 13,600 843 Climbing Denver Center
Sat 09:13:13 AM 39.6128 -103.8189 106° East 247 284 14,800 1,140 Climbing Denver Center
Sat 09:14:14 AM 39.5958 -103.7342 105° East 242 278 15,900 934 Climbing Denver Center
Sat 09:15:15 AM 39.5794 -103.6547 105° East 240 276 16,700 787 Climbing Denver Center
Sat 09:16:16 AM 39.5639 -103.5753 104° East 238 274 17,500 893 Climbing Denver Center
Sat 09:17:16 AM 39.5436 -103.4808 106° East 244 281 18,500 942 Climbing Denver Center
Sat 09:18:17 AM 39.5250 -103.4017 107° East 240 276 19,400 896 Climbing Denver Center
Sat 09:19:30 AM 39.4947 -103.3014 111° Southeast 234 269 20,500 722 Climbing Denver Center
Sat 09:20:30 AM 39.4714 -103.2233 111° Southeast 240 276 21,000 298 Climbing Denver Center
Sat 09:21:31 AM 39.4467 -103.1400 111° Southeast 254 292 21,100  Climbing Denver Center
Sat 09:22:32 AM 39.4122 -103.0411 114° Southeast 269 310 21,000  Descending Denver Center
Sat 09:23:45 AM 39.3778 -102.9403 114° Southeast 274 315 21,100  Climbing Denver Center
Sat 09:24:46 AM 39.3558 -102.8467 107° East 277 319 21,000 -50 Descending Denver Center
Sat 09:25:46 AM 39.3286 -102.7414 108° East 282 325 21,000  Level Denver Center
Sat 09:26:47 AM 39.3064 -102.6508 108° East 284 327 21,000  Level Denver Center
Sat 09:27:48 AM 39.2811 -102.5439 107° East 279 321 21,000  Level Denver Center
Sat 09:28:49 AM 39.2564 -102.4511 109° East 285 328 21,000 50 Level Denver Center
Sat 09:29:49 AM 39.2364 -102.3581 105° East 282 325 21,100 50 Climbing Denver Center
Sat 09:30:50 AM 39.2083 -102.2508 109° East 284 327 21,100 -49 Level Denver Center
Sat 09:31:51 AM 39.1808 -102.1633 112° Southeast 278 320 21,000 -49 Descending Denver Center
Sat 09:32:52 AM 39.1503 -102.0764 114° Southeast 278 320 21,000  Level Denver Center
Sat 09:33:53 AM 39.1033 -101.9869 124° Southeast 275 316 21,000 50 Level Denver Center
Sat 09:34:53 AM 39.0572 -101.9178 131° Southeast 269 310 21,100  Climbing Denver Center
Sat 09:35:54 AM 39.0072 -101.8531 135° Southeast 267 307 21,000 -49 Descending Denver Center
Sat 09:36:55 AM 38.9481 -101.7814 137° Southeast 264 304 21,000 49 Level Denver Center
Sat 09:37:56 AM 38.8972 -101.7178 136° Southeast 266 306 21,100  Climbing Denver Center
Sat 09:38:57 AM 38.8425 -101.6619 142° Southeast 264 304 21,000 -397 Descending Denver Center
Sat 09:39:57 AM 38.7797 -101.5914 139° Southeast 267 307 20,300 -942 Descending Denver Center
Sat 09:40:58 AM 38.7208 -101.5300 141° Southeast 281 323 19,100 -1,180 Descending Denver Center
Sat 09:41:59 AM 38.6625 -101.4611 137° Southeast 294 338 17,900 -1,180 Descending Denver Center
Sat 09:43:00 AM 38.6011 -101.3983 141° Southeast 297 342 16,700 -1,328 Descending Denver Center
Sat 09:44:01 AM 38.5286 -101.3242 141° Southeast 298 343 15,200 -1,426 Descending Denver Center
Sat 09:45:02 AM 38.4675 -101.2586 140° Southeast 300 345 13,800 -1,328 Descending Denver Center
Sat 09:46:03 AM 38.4075 -101.1658 130° Southeast 300 345 12,500 -1,131 Descending Denver Center
Sat 09:47:04 AM 38.3564 -101.0886 130° Southeast 299 344 11,500 -1,230 Descending Denver Center
Sat 09:48:05 AM 38.2967 -101.0014 131° Southeast 296 341 10,000 -2,182 Descending Denver Center
Sat 09:49:05 AM 38.2503 -100.9275 129° Southeast 287 330 7,100 -2,380 Descending Denver Center
Sat 09:50:06 AM 38.2033 -100.8564 130° Southeast 280 322 5,200 -1,033 Descending Denver Center
Sat 09:51:07 AM 38.1589 -100.7847 128° Southeast 250 288 5,000 -98 Descending Denver Center
Sat 09:52:08 AM 38.1325 -100.7314 122° Southeast 209 241 5,000  Level Denver Center
Sat 09:52:32 AM 38.1206 -100.7172 137° Southeast 202 232 5,000 -209 Level Kansas City Center
Sat 09:53:34 AM 38.0683 -100.7033 168° South 177 204 4,700 -341 Descending Kansas City Center
Sat 09:54:35 AM 38.0294 -100.7050 182° South 159 183 4,300 -393 Descending Kansas City Center
Sat 09:55:36 AM 37.9911 -100.7144 191° South 135 155 3,900 -439 Descending Kansas City Center
Sat 09:56:38 AM 37.9600 -100.7244 194° South 126 145 3,400 -484 Descending Kansas City Center

Login

Don't have an account? Register now (free) for customized features, flight alerts, and more!